Provincetown III — WDB8185 — position and weather

sailwx.info

Track history (hours):
 
Tides and Currents Weather Stations Pressure Air Temp Water Temp Dewpoint Dewpoint Depression Visibility Wind Speed Wind Dir Waves Ship Positions

Provincetown III

Owner: MYSTIC FERRY LEASING LLC, BOSTON, MA. More information available from US FCC via Universal Licensing System and Coast Guard Vessel Documentation Center.

Last reported at 2017-Jul-22 16:30 UTC. Time now 2017-Jul-22 16:39 UTC.
Position N 42°21' W 071°02'.

Length 30 m; draft 2 m.

Type: Passenger vessel. MMSI: 366954420.

Date/timePositionNaut miles runAvg speedWind from/ knotsBaromVisibWave heightAir tempDewpointWater temp
2017-Jul-22 16:30N 42°21' W 071°02'0 0.4
2017-Jul-22 16:01N 42°21' W 071°02'917.2
2017-Jul-22 15:30N 42°19' W 070°51'1428.0
2017-Jul-22 15:00N 42°12' W 070°35'2019.9
2017-Jul-22 14:00N 42°03' W 070°11'2321.2
2017-Jul-22 12:56N 42°13' W 070°38'1228.6
2017-Jul-22 12:31N 42°19' W 070°53'815.1
2017-Jul-22 12:00N 42°21' W 071°02'0 0.1
2017-Jul-22 11:30N 42°21' W 071°03'0 0.0
2017-Jul-22 01:19N 42°21' W 071°02'516.5
2017-Jul-22 01:01N 42°20' W 070°56'1428.5
2017-Jul-22 00:31N 42°13' W 070°39'2313.3
2017-Jul-21 22:46N 42°03' W 070°11'2122.2
2017-Jul-21 21:48N 42°13' W 070°37'827.7
2017-Jul-21 21:31N 42°17' W 070°46'1325.8
2017-Jul-21 21:00N 42°21' W 071°02'0 0.1
2017-Jul-21 20:30N 42°21' W 071°02'1 2.7
2017-Jul-21 20:01N 42°21' W 071°01'1428.4
2017-Jul-21 19:30N 42°15' W 070°43'4 2.0
2017-Jul-21 17:19N 42°13' W 070°38'928.8
2017-Jul-21 17:01N 42°18' W 070°48'1122.6
2017-Jul-21 16:30N 42°21' W 071°02'0 0.2
2017-Jul-21 16:00N 42°21' W 071°02'0 0.0
2017-Jul-20 20:56N 42°21' W 071°02'512.2
2017-Jul-20 20:31N 42°20' W 070°56'1529.1
2017-Jul-20 20:01N 42°13' W 070°38'2 0.2
2017-Jul-20 13:01N 42°12' W 070°36'128.7
2017-Jul-20 13:00N 42°13' W 070°37'1428.5
2017-Jul-20 12:31N 42°19' W 070°53'713.9
2017-Jul-20 12:00N 42°21' W 071°02'0 0.2
2017-Jul-20 11:30N 42°21' W 071°02'  
2017-Jul-18 01:12N 42°21' W 071°02'525.0
2017-Jul-18 01:01N 42°20' W 070°56'1427.9
2017-Jul-18 00:30N 42°14' W 070°39'6 3.1
2017-Jul-17 22:29N 42°10' W 070°32'1328.1
2017-Jul-17 22:00N 42°17' W 070°47'1223.6
2017-Jul-17 21:30N 42°21' W 071°02'0 0.0
2017-Jul-17 21:00N 42°21' W 071°02'611.3
2017-Jul-17 20:31N 42°19' W 070°55'1428.2
2017-Jul-17 20:00N 42°13' W 070°38'1428.1
2017-Jul-17 19:30N 42°05' W 070°22'914.6
2017-Jul-17 18:54N 42°03' W 070°11'1216.5
2017-Jul-17 18:12N 42°07' W 070°25'928.1
2017-Jul-17 17:54N 42°12' W 070°35'1227.6
2017-Jul-17 17:27N 42°18' W 070°49'1022.6
2017-Jul-17 17:00N 42°21' W 071°02'0 0.0
2017-Jul-17 16:30N 42°21' W 071°02'0 0.1
2017-Jul-17 16:00N 42°21' W 071°02'0 0.0
2017-Jul-17 00:58N 42°21' W 071°02'4 9.0
2017-Jul-17 00:31N 42°20' W 070°57'1428.0
2017-Jul-17 00:00N 42°14' W 070°40'1427.9
2017-Jul-16 23:30N 42°07' W 070°24'1019.0
2017-Jul-16 22:58N 42°03' W 070°11'2 4.0
2017-Jul-16 22:31N 42°01' W 070°11'1224.5
2017-Jul-16 22:00N 42°07' W 070°25'1325.5
2017-Jul-16 21:31N 42°14' W 070°40'1224.7
2017-Jul-16 21:01N 42°19' W 070°55'612.1
2017-Jul-16 20:30N 42°21' W 071°02'918.6
2017-Jul-16 20:01N 42°19' W 070°51'1428.4
2017-Jul-16 19:30N 42°11' W 070°34'1428.4
2017-Jul-16 19:00N 42°03' W 070°18'5 7.9
2017-Jul-16 18:22N 42°03' W 070°11'0 0.0
2017-Jul-16 18:00N 42°03' W 070°11'713.9
2017-Jul-16 17:30N 42°05' W 070°20'1325.4
2017-Jul-16 17:00N 42°11' W 070°35'1225.2
2017-Jul-16 16:30N 42°18' W 070°49'1121.3
2017-Jul-16 16:01N 42°21' W 071°02'510.5
2017-Jul-16 15:31N 42°20' W 070°56'1427.5
2017-Jul-16 15:00N 42°14' W 070°39'3 1.3
2017-Jul-16 12:56N 42°12' W 070°36'1229.7
2017-Jul-16 12:31N 42°19' W 070°50'9 0.6
2017-Jul-15 21:59N 42°21' W 071°02'4 8.1
2017-Jul-15 21:31N 42°20' W 070°58'3 5.5
2017-Jul-15 21:00N 42°21' W 071°01'1 2.1
2017-Jul-15 20:30N 42°21' W 071°02'816.8
2017-Jul-15 20:01N 42°19' W 070°52'12 4.5
2017-Jul-15 17:23N 42°13' W 070°38'1027.4
2017-Jul-15 17:00N 42°18' W 070°50'1019.4
2017-Jul-15 16:31N 42°21' W 071°02'0 0.1
2017-Jul-15 16:00N 42°21' W 071°02'1225.0
2017-Jul-15 15:30N 42°17' W 070°46'1527.5
2017-Jul-15 14:57N 42°09' W 070°29'2 1.3
2017-Jul-15 13:11N 42°10' W 070°32'528.1
2017-Jul-15 13:01N 42°13' W 070°37'1428.1
2017-Jul-15 12:31N 42°19' W 070°54'713.3
2017-Jul-15 12:00N 42°21' W 071°03'0 0.2
2017-Jul-15 11:29N 42°21' W 071°02'0 0.0
2017-Jul-15 00:49N 42°21' W 071°02'618.1
2017-Jul-15 00:31N 42°19' W 070°55'1326.0
2017-Jul-15 00:00N 42°14' W 070°39'1326.5
2017-Jul-14 23:30N 42°07' W 070°24'1 0.4
2017-Jul-14 22:12N 42°07' W 070°25'527.4
2017-Jul-14 22:01N 42°10' W 070°31'1427.8
2017-Jul-14 21:30N 42°17' W 070°47'1224.4
2017-Jul-14 21:00N 42°21' W 071°02'0 0.0
2017-Jul-14 20:30N 42°21' W 071°02'0 0.0
2017-Jul-13 17:36N 42°21' W 071°02'0 0.0
2017-Jul-13 17:30N 42°21' W 071°02'0 0.0
2017-Jul-13 16:54N 42°21' W 071°02'410.6
2017-Jul-13 16:31N 42°20' W 070°57'5314.8
2017-Jul-13 12:55N 41°27' W 071°03'1024.6
2017-Jul-13 12:30N 41°26' W 071°16'917.3
2017-Jul-13 12:01N 41°32' W 071°24'4 7.2
2017-Jul-13 11:30N 41°35' W 071°25'0 0.0
2017-Jul-13 11:00N 41°35' W 071°25'0 0.0
2017-Jul-13 00:15N 41°35' W 071°25'0 0.0
2017-Jul-13 00:00N 41°35' W 071°25'917.7
2017-Jul-12 23:31N 41°26' W 071°24'1427.2
2017-Jul-12 23:01N 41°27' W 071°06'4 1.8
2017-Jul-12 21:01N 41°27' W 071°01'128.4
2017-Jul-12 20:59N 41°27' W 071°03'1328.4
2017-Jul-12 20:31N 41°25' W 071°20'1020.5
2017-Jul-12 20:01N 41°35' W 071°25'2 5.0
2017-Jul-12 19:31N 41°34' W 071°22'611.4
2017-Jul-12 19:01N 41°29' W 071°19'4 8.4
2017-Jul-12 18:31N 41°29' W 071°25'612.0
2017-Jul-12 18:00N 41°35' W 071°25'0 0.0
2017-Jul-12 17:30N 41°35' W 071°25'0 0.0
2017-Jul-12 17:00N 41°35' W 071°25'1121.1
2017-Jul-12 16:31N 41°25' W 071°20'  
Track history (hours):
 
Tides and Currents Weather Stations Pressure Air Temp Water Temp Dewpoint Dewpoint Depression Visibility Wind Speed Wind Dir Waves Ship Positions

Provincetown III

Owner: MYSTIC FERRY LEASING LLC, BOSTON, MA. More information available from US FCC via Universal Licensing System and Coast Guard Vessel Documentation Center.

Last reported at 2017-Jul-22 16:30 UTC. Time now 2017-Jul-22 16:39 UTC.
Position N 42°21' W 071°02'.

Length 30 m; draft 2 m.

Type: Passenger vessel. MMSI: 366954420.

Date/timePositionNaut miles runAvg speedWind from/ knotsBaromVisibWave heightAir tempDewpointWater temp
2017-Jul-22 16:30N 42°21' W 071°02'0 0.4
2017-Jul-22 16:01N 42°21' W 071°02'917.2
2017-Jul-22 15:30N 42°19' W 070°51'1428.0
2017-Jul-22 15:00N 42°12' W 070°35'2019.9
2017-Jul-22 14:00N 42°03' W 070°11'2321.2
2017-Jul-22 12:56N 42°13' W 070°38'1228.6
2017-Jul-22 12:31N 42°19' W 070°53'815.1
2017-Jul-22 12:00N 42°21' W 071°02'0 0.1
2017-Jul-22 11:30N 42°21' W 071°03'0 0.0
2017-Jul-22 01:19N 42°21' W 071°02'516.5
2017-Jul-22 01:01N 42°20' W 070°56'1428.5
2017-Jul-22 00:31N 42°13' W 070°39'2313.3
2017-Jul-21 22:46N 42°03' W 070°11'2122.2
2017-Jul-21 21:48N 42°13' W 070°37'827.7
2017-Jul-21 21:31N 42°17' W 070°46'1325.8
2017-Jul-21 21:00N 42°21' W 071°02'0 0.1
2017-Jul-21 20:30N 42°21' W 071°02'1 2.7
2017-Jul-21 20:01N 42°21' W 071°01'1428.4
2017-Jul-21 19:30N 42°15' W 070°43'4 2.0
2017-Jul-21 17:19N 42°13' W 070°38'928.8
2017-Jul-21 17:01N 42°18' W 070°48'1122.6
2017-Jul-21 16:30N 42°21' W 071°02'0 0.2
2017-Jul-21 16:00N 42°21' W 071°02'0 0.0
2017-Jul-20 20:56N 42°21' W 071°02'512.2
2017-Jul-20 20:31N 42°20' W 070°56'1529.1
2017-Jul-20 20:01N 42°13' W 070°38'2 0.2
2017-Jul-20 13:01N 42°12' W 070°36'128.7
2017-Jul-20 13:00N 42°13' W 070°37'1428.5
2017-Jul-20 12:31N 42°19' W 070°53'713.9
2017-Jul-20 12:00N 42°21' W 071°02'0 0.2
2017-Jul-20 11:30N 42°21' W 071°02'  
2017-Jul-18 01:12N 42°21' W 071°02'525.0
2017-Jul-18 01:01N 42°20' W 070°56'1427.9
2017-Jul-18 00:30N 42°14' W 070°39'6 3.1
2017-Jul-17 22:29N 42°10' W 070°32'1328.1
2017-Jul-17 22:00N 42°17' W 070°47'1223.6
2017-Jul-17 21:30N 42°21' W 071°02'0 0.0
2017-Jul-17 21:00N 42°21' W 071°02'611.3
2017-Jul-17 20:31N 42°19' W 070°55'1428.2
2017-Jul-17 20:00N 42°13' W 070°38'1428.1
2017-Jul-17 19:30N 42°05' W 070°22'914.6
2017-Jul-17 18:54N 42°03' W 070°11'1216.5
2017-Jul-17 18:12N 42°07' W 070°25'928.1
2017-Jul-17 17:54N 42°12' W 070°35'1227.6
2017-Jul-17 17:27N 42°18' W 070°49'1022.6
2017-Jul-17 17:00N 42°21' W 071°02'0 0.0
2017-Jul-17 16:30N 42°21' W 071°02'0 0.1
2017-Jul-17 16:00N 42°21' W 071°02'0 0.0
2017-Jul-17 00:58N 42°21' W 071°02'4 9.0
2017-Jul-17 00:31N 42°20' W 070°57'1428.0
2017-Jul-17 00:00N 42°14' W 070°40'1427.9
2017-Jul-16 23:30N 42°07' W 070°24'1019.0
2017-Jul-16 22:58N 42°03' W 070°11'2 4.0
2017-Jul-16 22:31N 42°01' W 070°11'1224.5
2017-Jul-16 22:00N 42°07' W 070°25'1325.5
2017-Jul-16 21:31N 42°14' W 070°40'1224.7
2017-Jul-16 21:01N 42°19' W 070°55'612.1
2017-Jul-16 20:30N 42°21' W 071°02'918.6
2017-Jul-16 20:01N 42°19' W 070°51'1428.4
2017-Jul-16 19:30N 42°11' W 070°34'1428.4
2017-Jul-16 19:00N 42°03' W 070°18'5 7.9
2017-Jul-16 18:22N 42°03' W 070°11'0 0.0
2017-Jul-16 18:00N 42°03' W 070°11'713.9
2017-Jul-16 17:30N 42°05' W 070°20'1325.4
2017-Jul-16 17:00N 42°11' W 070°35'1225.2
2017-Jul-16 16:30N 42°18' W 070°49'1121.3
2017-Jul-16 16:01N 42°21' W 071°02'510.5
2017-Jul-16 15:31N 42°20' W 070°56'1427.5
2017-Jul-16 15:00N 42°14' W 070°39'3 1.3
2017-Jul-16 12:56N 42°12' W 070°36'1229.7
2017-Jul-16 12:31N 42°19' W 070°50'9 0.6
2017-Jul-15 21:59N 42°21' W 071°02'4 8.1
2017-Jul-15 21:31N 42°20' W 070°58'3 5.5
2017-Jul-15 21:00N 42°21' W 071°01'1 2.1
2017-Jul-15 20:30N 42°21' W 071°02'816.8
2017-Jul-15 20:01N 42°19' W 070°52'12 4.5
2017-Jul-15 17:23N 42°13' W 070°38'1027.4
2017-Jul-15 17:00N 42°18' W 070°50'1019.4
2017-Jul-15 16:31N 42°21' W 071°02'0 0.1
2017-Jul-15 16:00N 42°21' W 071°02'1225.0
2017-Jul-15 15:30N 42°17' W 070°46'1527.5
2017-Jul-15 14:57N 42°09' W 070°29'2 1.3
2017-Jul-15 13:11N 42°10' W 070°32'528.1
2017-Jul-15 13:01N 42°13' W 070°37'1428.1
2017-Jul-15 12:31N 42°19' W 070°54'713.3
2017-Jul-15 12:00N 42°21' W 071°03'0 0.2
2017-Jul-15 11:29N 42°21' W 071°02'0 0.0
2017-Jul-15 00:49N 42°21' W 071°02'618.1
2017-Jul-15 00:31N 42°19' W 070°55'1326.0
2017-Jul-15 00:00N 42°14' W 070°39'1326.5
2017-Jul-14 23:30N 42°07' W 070°24'1 0.4
2017-Jul-14 22:12N 42°07' W 070°25'527.4
2017-Jul-14 22:01N 42°10' W 070°31'1427.8
2017-Jul-14 21:30N 42°17' W 070°47'1224.4
2017-Jul-14 21:00N 42°21' W 071°02'0 0.0
2017-Jul-14 20:30N 42°21' W 071°02'0 0.0
2017-Jul-13 17:36N 42°21' W 071°02'0 0.0
2017-Jul-13 17:30N 42°21' W 071°02'0 0.0
2017-Jul-13 16:54N 42°21' W 071°02'410.6
2017-Jul-13 16:31N 42°20' W 070°57'5314.8
2017-Jul-13 12:55N 41°27' W 071°03'1024.6
2017-Jul-13 12:30N 41°26' W 071°16'917.3
2017-Jul-13 12:01N 41°32' W 071°24'4 7.2
2017-Jul-13 11:30N 41°35' W 071°25'0 0.0
2017-Jul-13 11:00N 41°35' W 071°25'0 0.0
2017-Jul-13 00:15N 41°35' W 071°25'0 0.0
2017-Jul-13 00:00N 41°35' W 071°25'917.7
2017-Jul-12 23:31N 41°26' W 071°24'1427.2
2017-Jul-12 23:01N 41°27' W 071°06'4 1.8
2017-Jul-12 21:01N 41°27' W 071°01'128.4
2017-Jul-12 20:59N 41°27' W 071°03'1328.4
2017-Jul-12 20:31N 41°25' W 071°20'1020.5
2017-Jul-12 20:01N 41°35' W 071°25'2 5.0
2017-Jul-12 19:31N 41°34' W 071°22'611.4
2017-Jul-12 19:01N 41°29' W 071°19'4 8.4
2017-Jul-12 18:31N 41°29' W 071°25'612.0
2017-Jul-12 18:00N 41°35' W 071°25'0 0.0
2017-Jul-12 17:30N 41°35' W 071°25'0 0.0
2017-Jul-12 17:00N 41°35' W 071°25'1121.1
2017-Jul-12 16:31N 41°25' W 071°20'  

Dump ship's entire track history